Wibaux, Montana
Current Conditions -  °F | °C
As of 6:55 AM on Monday 22 Dec 2014 (Local Time) from K20U Reporting Station
Light Snow Light Snow  
Wind Chill: 15°   Ceiling: 1300
Heat Index: 28°   Visibility: 2.5mi
Dew Point: 28°   Wind: 22mph
Humidity: 100%   Direction: 320°NW
Pressure: 29.53"   Gusts: 31mph
Location:  46.99°N, 104.19°W
Report Text: K20U 221355Z AUTO 32019G27KT 2 1/2SM -SN OVC013 M02/M02 A2953 RMK AO2 P0013
Loading
Personal Weather Stations






























Interactive Weather Map New forecast layout! Learn more

10-Day Weather Forecast

Advertisements
Track Severe Weather on mobile